Savage, Montana
Current Conditions -  °F | °C
As of 2:35 PM on Wednesday 17 Dec 2014 (Local Time) from KSDY Reporting Station
Overcast Overcast  
Wind Chill: 10°   Ceiling: 1300
Heat Index: 21°   Visibility: 10mi
Dew Point: 16°   Wind: 10mph
Humidity: 80%   Direction: 140°SE
Pressure: 30.09"   Gusts: NA
Location:  47.46°N, 104.35°W
Report Text: KSDY 172135Z AUTO 14009KT 10SM OVC013 M06/M09 A3009 RMK AO1
Loading
Personal Weather Stations






























Interactive Weather Map New forecast layout! Learn more

10-Day Weather Forecast

Advertisements
Track Severe Weather on mobile